Time;durP1;ratioP1;P1;durP2;ratioP2;P2;SDS_P1;SDS_P2;PMS_P1;PMS_P2;Temp;Humidity;BMP_temperature;BMP_pressure;BME280_temperature;BME280_humidity;BME280_pressure;Samples;Min_cycle;Max_cycle;Signal;HPM_P1;HPM_P2
2023/02/26 00:01:32;;;;;;;6.17;2.70;;;;;;;-145.69;100.00;52646.41;5073587;28;20207;-83
2023/02/26 00:04:03;;;;;;;3.97;2.30;;;;;;;-145.69;100.00;52628.56;5073001;28;20286;-83
2023/02/26 00:06:35;;;;;;;3.73;2.00;;;;;;;-145.69;100.00;52624.59;5053349;28;20203;-83
2023/02/26 00:09:02;;;;;;;9.80;2.10;;;;;;;-145.69;100.00;52622.63;5053309;28;20223;-83
2023/02/26 00:11:29;;;;;;;6.13;1.70;;;;;;;-145.69;100.00;52606.78;5053509;28;20223;-84
2023/02/26 00:13:56;;;;;;;8.00;2.20;;;;;;;-145.69;100.00;52620.66;5053497;28;20196;-84
2023/02/26 00:16:28;;;;;;;3.67;1.90;;;;;;;-145.69;100.00;52624.59;5057202;28;20207;-84
2023/02/26 00:18:55;;;;;;;3.53;1.80;;;;;;;-145.69;100.00;52592.91;5058844;28;20214;-83
2023/02/26 00:21:24;;;;;;;3.67;2.00;;;;;;;-145.69;100.00;52598.84;5077476;28;20553;-84
2023/02/26 00:23:51;;;;;;;9.27;1.93;;;;;;;-145.69;100.00;52614.72;5077998;28;20209;-86
2023/02/26 00:26:18;;;;;;;3.37;1.87;;;;;;;-145.69;100.00;52610.75;5078724;28;20210;-85
2023/02/26 00:28:46;;;;;;;5.77;2.00;;;;;;;-145.69;100.00;52594.91;5078983;28;20236;-85
2023/02/26 00:31:15;;;;;;;2.47;1.90;;;;;;;-145.69;100.00;52636.50;5079043;28;20618;-85
2023/02/26 00:33:44;;;;;;;6.63;2.33;;;;;;;-145.69;100.00;52630.53;5078247;28;20718;-84
2023/02/26 00:36:22;;;;;;;1.97;1.67;;;;;;;-145.69;100.00;52622.63;5078025;28;20210;-85
2023/02/26 00:38:59;;;;;;;5.73;1.93;;;;;;;-145.69;100.00;52618.66;5077651;28;20203;-85
2023/02/26 00:41:29;;;;;;;3.53;2.17;;;;;;;-145.69;100.00;52674.13;5078393;28;20198;-84
2023/02/26 00:43:56;;;;;;;3.60;2.23;;;;;;;-145.69;100.00;52628.56;5079050;28;20199;-86
2023/02/26 00:46:36;;;;;;;5.80;2.10;;;;;;;-145.69;100.00;52652.34;5078675;28;20202;-86
2023/02/26 00:49:16;;;;;;;4.73;1.97;;;;;;;-145.69;100.00;52636.50;5078180;28;20239;-86
2023/02/26 00:51:48;;;;;;;4.33;1.87;;;;;;;-145.69;100.00;52612.72;5078432;28;20202;-84
2023/02/26 00:54:20;;;;;;;3.87;2.30;;;;;;;-145.69;100.00;52642.44;5078217;28;20201;-85
2023/02/26 00:56:48;;;;;;;3.40;1.80;;;;;;;-145.69;100.00;52640.44;5077513;28;20195;-85
2023/02/26 00:59:14;;;;;;;5.37;1.90;;;;;;;-145.69;100.00;52630.53;5076152;28;20560;-85
2023/02/26 01:01:42;;;;;;;5.70;2.17;;;;;;;-145.69;100.00;52644.41;5076768;28;20221;-85
2023/02/26 01:04:09;;;;;;;3.73;1.77;;;;;;;-145.69;100.00;52598.84;5076619;28;20194;-85
2023/02/26 01:06:42;;;;;;;6.57;1.80;;;;;;;-145.69;100.00;52624.59;5077011;28;20290;-85
2023/02/26 01:09:15;;;;;;;5.57;2.03;;;;;;;-145.69;100.00;52622.63;5077251;28;20238;-85
2023/02/26 01:11:44;;;;;;;4.13;2.47;;;;;;;-145.69;100.00;52624.59;5077205;28;20206;-85
2023/02/26 01:14:11;;;;;;;4.63;2.27;;;;;;;-145.69;100.00;52632.53;5075660;28;20195;-85
2023/02/26 01:16:56;;;;;;;6.97;2.30;;;;;;;-145.69;100.00;52612.72;5076536;28;20203;-84
2023/02/26 01:19:32;;;;;;;7.47;2.30;;;;;;;-145.69;100.00;52614.72;5076826;28;20206;-85
2023/02/26 01:22:08;;;;;;;6.00;2.20;;;;;;;-145.69;100.00;52636.50;5076929;28;20208;-85
2023/02/26 01:24:36;;;;;;;3.93;2.17;;;;;;;-145.69;100.00;52622.63;5076423;28;20198;-85
2023/02/26 01:27:05;;;;;;;3.70;1.70;;;;;;;-145.69;100.00;52610.75;5075976;28;20257;-84
2023/02/26 01:29:32;;;;;;;4.77;2.10;;;;;;;-145.69;100.00;52614.72;5076002;28;20226;-85
2023/02/26 01:32:09;;;;;;;3.97;2.23;;;;;;;-145.69;100.00;52626.59;5076161;28;20195;-85
2023/02/26 01:34:41;;;;;;;4.13;2.17;;;;;;;-145.69;100.00;52648.38;5075690;28;20198;-85
2023/02/26 01:37:19;;;;;;;7.27;2.40;;;;;;;-145.69;100.00;52670.16;5076436;28;20205;-86
2023/02/26 01:39:49;;;;;;;6.00;1.87;;;;;;;-145.69;100.00;52583.00;5076025;28;20229;-85
2023/02/26 01:42:21;;;;;;;6.03;2.33;;;;;;;-145.69;100.00;52630.53;5076054;28;20556;-85
2023/02/26 01:44:56;;;;;;;2.43;2.13;;;;;;;-145.69;100.00;52654.31;5074822;28;20195;-84
2023/02/26 01:47:30;;;;;;;7.93;2.33;;;;;;;-145.69;100.00;52660.25;5075893;28;20198;-84
2023/02/26 01:50:00;;;;;;;5.87;2.37;;;;;;;-145.69;100.00;52624.59;5075665;28;20223;-84
2023/02/26 01:53:05;;;;;;;3.90;1.93;;;;;;;-145.69;100.00;52575.09;5076009;28;20237;-83
2023/02/26 01:55:31;;;;;;;10.57;2.47;;;;;;;-145.69;100.00;52634.50;5076095;28;20238;-84
2023/02/26 01:58:01;;;;;;;4.17;2.47;;;;;;;-145.69;100.00;52606.78;5076022;28;20210;-85
2023/02/26 02:00:31;;;;;;;5.70;2.43;;;;;;;-145.69;100.00;52630.53;5075605;28;20534;-84
2023/02/26 02:02:58;;;;;;;5.10;1.90;;;;;;;-145.69;100.00;52646.41;5075899;28;20226;-84
2023/02/26 02:05:31;;;;;;;3.67;2.00;;;;;;;-145.69;100.00;52598.84;5075381;28;20202;-85
2023/02/26 02:07:59;;;;;;;6.00;2.23;;;;;;;-145.69;100.00;52614.72;5075893;28;20203;-84
2023/02/26 02:10:28;;;;;;;4.50;2.33;;;;;;;-145.69;100.00;52648.38;5075436;28;20237;-83
2023/02/26 02:13:03;;;;;;;5.60;2.40;;;;;;;-145.69;100.00;52642.44;5074954;28;20187;-83
2023/02/26 02:15:38;;;;;;;5.27;2.40;;;;;;;-145.69;100.00;52642.44;5075367;28;20199;-84
2023/02/26 02:18:17;;;;;;;5.40;2.57;;;;;;;-145.69;100.00;52618.66;5075345;28;20206;-84
2023/02/26 02:20:57;;;;;;;7.90;2.43;;;;;;;-145.69;100.00;52630.53;5074849;28;20210;-81
2023/02/26 02:23:30;;;;;;;6.00;2.33;;;;;;;-145.69;100.00;52622.63;5074450;28;20241;-83
2023/02/26 02:26:30;;;;;;;4.70;2.87;;;;;;;-145.69;100.00;52614.72;5074584;28;20191;-83
2023/02/26 02:29:22;;;;;;;4.87;3.10;;;;;;;-145.69;100.00;52634.50;5074052;28;20233;-82
2023/02/26 02:31:56;;;;;;;5.10;2.93;;;;;;;-145.69;100.00;52630.53;5074245;28;20207;-82
2023/02/26 02:34:29;;;;;;;7.57;2.80;;;;;;;-145.69;100.00;52602.81;5072834;28;20222;-82
2023/02/26 02:36:59;;;;;;;4.13;2.63;;;;;;;-145.69;100.00;52630.53;5073861;28;20207;-82
2023/02/26 02:39:31;;;;;;;8.03;2.60;;;;;;;-145.69;100.00;52586.97;5074140;28;20203;-82
2023/02/26 02:42:03;;;;;;;7.50;3.00;;;;;;;-145.69;100.00;52654.31;5073990;28;20226;-82
2023/02/26 02:44:37;;;;;;;14.93;3.53;;;;;;;-145.69;100.00;52640.44;5074214;28;20213;-82
2023/02/26 02:47:07;;;;;;;4.73;2.70;;;;;;;-145.69;100.00;52628.56;5073762;28;20612;-81
2023/02/26 02:49:42;;;;;;;5.73;2.53;;;;;;;-145.69;100.00;52646.41;5073505;28;20202;-81
2023/02/26 02:52:16;;;;;;;3.30;2.30;;;;;;;-145.69;100.00;52608.75;5074168;28;20280;-82
2023/02/26 02:54:48;;;;;;;7.77;2.80;;;;;;;-145.69;100.00;52652.34;5073701;28;20652;-82
2023/02/26 02:57:20;;;;;;;6.10;2.70;;;;;;;-145.69;100.00;52638.47;5073749;28;20198;-82
2023/02/26 02:59:50;;;;;;;3.00;2.50;;;;;;;-145.69;100.00;52626.59;5073338;28;20289;-82
2023/02/26 03:02:23;;;;;;;8.67;2.90;;;;;;;-145.69;100.00;52650.34;5073695;28;20203;-83
2023/02/26 03:04:50;;;;;;;15.33;2.23;;;;;;;-145.69;100.00;52648.38;5073460;28;20203;-83
2023/02/26 03:07:19;;;;;;;3.27;2.23;;;;;;;-145.69;100.00;52598.84;5073589;28;20703;-83
2023/02/26 03:09:46;;;;;;;5.67;2.63;;;;;;;-145.69;100.00;52622.63;5073685;28;20203;-82
2023/02/26 03:12:15;;;;;;;7.40;2.53;;;;;;;-145.69;100.00;52632.53;5073639;28;20202;-83
2023/02/26 03:14:45;;;;;;;6.80;2.80;;;;;;;-145.69;100.00;52608.75;5074656;28;20207;-84
2023/02/26 03:17:26;;;;;;;4.90;2.27;;;;;;;-145.69;100.00;52624.59;5072864;28;20685;-83
2023/02/26 03:20:06;;;;;;;3.50;2.30;;;;;;;-145.69;100.00;52638.47;5073451;28;20209;-83
2023/02/26 03:22:46;;;;;;;4.33;2.60;;;;;;;-145.69;100.00;52634.50;5074107;28;20202;-83
2023/02/26 03:25:17;;;;;;;4.17;2.23;;;;;;;-145.69;100.00;52634.50;5074085;28;20202;-83
2023/02/26 03:27:50;;;;;;;9.23;2.97;;;;;;;-145.69;100.00;52646.41;5073633;28;20234;-83
2023/02/26 03:30:25;;;;;;;3.57;2.50;;;;;;;-145.69;100.00;52616.69;5072579;28;20283;-83
2023/02/26 03:33:02;;;;;;;6.37;2.40;;;;;;;-145.69;100.00;52638.47;5074542;28;20202;-83
2023/02/26 03:35:35;;;;;;;5.77;3.03;;;;;;;-145.69;100.00;52616.69;5073929;28;20206;-83
2023/02/26 03:38:07;;;;;;;7.87;2.77;;;;;;;-145.69;100.00;52644.41;5073594;28;20198;-83
2023/02/26 03:40:42;;;;;;;5.80;2.80;;;;;;;-145.69;100.00;52622.63;5074181;28;20876;-84
2023/02/26 03:43:15;;;;;;;10.43;2.70;;;;;;;-145.69;100.00;52654.31;5074120;28;20198;-84
2023/02/26 03:45:45;;;;;;;4.53;2.20;;;;;;;-145.69;100.00;52638.47;5073892;28;20568;-82
2023/02/26 03:48:20;;;;;;;7.10;2.73;;;;;;;-145.69;100.00;52586.97;5073732;28;20294;-82
2023/02/26 03:50:50;;;;;;;4.13;2.10;;;;;;;-145.69;100.00;52632.53;5057164;28;20226;-83
2023/02/26 03:53:33;;;;;;;5.67;2.47;;;;;;;-145.69;100.00;52660.25;5057956;28;20557;-83
2023/02/26 03:56:06;;;;;;;6.03;2.87;;;;;;;-145.69;100.00;52634.50;5070510;28;20194;-84
2023/02/26 03:58:32;;;;;;;7.10;3.17;;;;;;;-145.69;100.00;52626.59;5078087;28;20201;-83
2023/02/26 04:01:03;;;;;;;6.43;2.63;;;;;;;-145.69;100.00;52626.59;5078067;28;20553;-84
2023/02/26 04:03:37;;;;;;;5.07;2.60;;;;;;;-145.69;100.00;52594.91;5078220;28;20648;-83
2023/02/26 04:06:05;;;;;;;7.33;2.47;;;;;;;-145.69;100.00;52634.50;5078829;28;20198;-84
2023/02/26 04:08:34;;;;;;;7.20;2.80;;;;;;;-145.69;100.00;52634.50;5078159;28;20641;-83
2023/02/26 04:11:07;;;;;;;4.97;2.10;;;;;;;-145.69;100.00;52628.56;5077184;28;20245;-82
2023/02/26 04:13:33;;;;;;;7.67;2.87;;;;;;;-145.69;100.00;52640.44;5077019;28;20198;-83
2023/02/26 04:16:00;;;;;;;7.17;2.33;;;;;;;-145.69;100.00;52583.00;5077947;28;20202;-83
2023/02/26 04:18:27;;;;;;;4.80;2.00;;;;;;;-145.69;100.00;52636.50;5078374;28;20298;-84
2023/02/26 04:20:55;;;;;;;7.87;2.53;;;;;;;-145.69;100.00;52596.88;5078282;28;20195;-83
2023/02/26 04:23:21;;;;;;;7.07;2.60;;;;;;;-145.69;100.00;52618.66;5077062;28;20557;-83
2023/02/26 04:25:51;;;;;;;8.70;2.27;;;;;;;-145.69;100.00;52638.47;5076771;28;20202;-83
2023/02/26 04:28:18;;;;;;;3.50;2.10;;;;;;;-145.69;100.00;52610.75;5076577;28;20226;-83
2023/02/26 04:30:44;;;;;;;4.47;2.50;;;;;;;-145.69;100.00;52642.44;5076646;28;20317;-83
2023/02/26 04:33:14;;;;;;;5.17;2.70;;;;;;;-145.69;100.00;52674.13;5075507;28;20665;-83
2023/02/26 04:35:41;;;;;;;7.07;2.50;;;;;;;-145.69;100.00;52658.28;5076934;28;20195;-83
2023/02/26 04:38:09;;;;;;;11.63;2.60;;;;;;;-145.69;100.00;52602.81;5076883;28;20203;-83
2023/02/26 04:40:36;;;;;;;3.90;2.30;;;;;;;-145.69;100.00;52644.41;5076680;28;20211;-83
2023/02/26 04:43:02;;;;;;;6.33;2.70;;;;;;;-145.69;100.00;52624.59;5076643;28;20201;-83
2023/02/26 04:45:29;;;;;;;7.17;1.93;;;;;;;-145.69;100.00;52646.41;5076966;28;20221;-83
2023/02/26 04:47:58;;;;;;;3.40;1.97;;;;;;;-145.69;100.00;52652.34;5076291;28;20660;-83
2023/02/26 04:50:28;;;;;;;5.77;2.07;;;;;;;-145.69;100.00;52628.56;5076302;28;20191;-83
2023/02/26 04:52:59;;;;;;;2.27;1.90;;;;;;;-145.69;100.00;52614.72;5076473;28;20633;-84
2023/02/26 04:55:27;;;;;;;3.20;2.10;;;;;;;-145.69;100.00;52646.41;5076341;28;20208;-83
2023/02/26 04:57:55;;;;;;;4.43;2.00;;;;;;;-145.69;100.00;52646.41;5076558;28;20210;-83
2023/02/26 05:00:22;;;;;;;7.10;2.27;;;;;;;-145.69;100.00;52650.34;5076045;28;20255;-84
2023/02/26 05:02:49;;;;;;;4.63;1.90;;;;;;;-145.69;100.00;52594.91;5076011;28;20199;-84
2023/02/26 05:05:15;;;;;;;9.67;2.33;;;;;;;-145.69;100.00;52634.50;5076258;28;20191;-83
2023/02/26 05:07:42;;;;;;;11.23;2.20;;;;;;;-145.69;100.00;52650.34;5076167;28;20250;-84
2023/02/26 05:10:10;;;;;;;2.60;2.00;;;;;;;-145.69;100.00;52638.47;5076064;28;20199;-83
2023/02/26 05:12:38;;;;;;;6.37;2.20;;;;;;;-145.69;100.00;52634.50;5076009;28;20636;-83
2023/02/26 05:15:08;;;;;;;3.83;1.97;;;;;;;-145.69;100.00;52644.41;5076367;28;20209;-84
2023/02/26 05:17:38;;;;;;;5.90;2.13;;;;;;;-145.69;100.00;52646.41;5109018;28;20718;-85
2023/02/26 05:20:08;;;;;;;7.20;2.40;;;;;;;-145.69;100.00;52604.81;5076484;28;20289;-84
2023/02/26 05:22:35;;;;;;;5.17;2.13;;;;;;;-145.69;100.00;52634.50;5075811;28;20203;-84
2023/02/26 05:25:02;;;;;;;4.17;2.20;;;;;;;-145.69;100.00;52612.72;5075958;28;20653;-85
2023/02/26 05:27:28;;;;;;;5.47;1.90;;;;;;;-145.69;100.00;52630.53;5076318;28;20201;-84
2023/02/26 05:29:56;;;;;;;3.57;1.70;;;;;;;-145.69;100.00;52642.44;5076188;28;20210;-84
2023/02/26 05:32:23;;;;;;;3.30;1.70;;;;;;;-145.69;100.00;52656.28;5076014;28;20241;-84
2023/02/26 05:34:49;;;;;;;4.77;2.07;;;;;;;-145.69;100.00;52658.28;5075830;28;20645;-84
2023/02/26 05:37:18;;;;;;;5.73;1.80;;;;;;;-145.69;100.00;52604.81;5075676;28;20558;-84
2023/02/26 05:39:45;;;;;;;3.27;1.90;;;;;;;-145.69;100.00;52604.81;5075943;28;20546;-84
2023/02/26 05:42:12;;;;;;;3.03;1.93;;;;;;;-145.69;100.00;52632.53;5076641;28;20242;-85
2023/02/26 05:44:38;;;;;;;5.33;2.23;;;;;;;-145.69;100.00;52610.75;5077116;28;20207;-84
2023/02/26 05:47:07;;;;;;;4.97;1.80;;;;;;;-145.69;100.00;52638.47;5075395;28;20206;-85
2023/02/26 05:49:34;;;;;;;4.13;2.00;;;;;;;-145.69;100.00;52632.53;5076681;28;20199;-85
2023/02/26 05:52:01;;;;;;;5.30;2.00;;;;;;;-145.69;100.00;52626.59;5077165;28;20242;-85
2023/02/26 05:54:27;;;;;;;3.07;1.63;;;;;;;-145.69;100.00;52664.22;5075340;28;20195;-83
2023/02/26 05:56:54;;;;;;;6.07;2.13;;;;;;;-145.69;100.00;52658.28;5075024;28;20301;-84
2023/02/26 05:59:21;;;;;;;4.67;1.70;;;;;;;-145.69;100.00;52634.50;5090845;28;20195;-84
2023/02/26 06:01:47;;;;;;;6.00;1.80;;;;;;;-145.69;100.00;52650.34;5075231;28;20198;-84
2023/02/26 06:04:15;;;;;;;5.93;2.10;;;;;;;-145.69;100.00;52662.22;5074630;28;20187;-84
2023/02/26 06:06:45;;;;;;;7.63;2.10;;;;;;;-145.69;100.00;52624.59;5074702;28;20198;-84
2023/02/26 06:09:12;;;;;;;3.87;1.90;;;;;;;-145.69;100.00;52626.59;5075752;28;20568;-83
2023/02/26 06:11:39;;;;;;;5.80;2.10;;;;;;;-145.69;100.00;52620.66;5074477;28;20230;-83
2023/02/26 06:14:06;;;;;;;4.17;1.77;;;;;;;-145.69;100.00;52638.47;5074922;28;20198;-84
2023/02/26 06:16:34;;;;;;;6.30;1.90;;;;;;;-145.69;100.00;52622.63;5076715;28;20234;-84
2023/02/26 06:19:01;;;;;;;1.93;1.40;;;;;;;-145.69;100.00;52652.34;5074746;28;20771;-84
2023/02/26 06:21:29;;;;;;;4.57;2.13;;;;;;;-145.69;100.00;52638.47;5075387;28;20213;-84
2023/02/26 06:23:56;;;;;;;7.53;1.73;;;;;;;-145.69;100.00;52638.47;5075715;28;20199;-84
2023/02/26 06:26:22;;;;;;;4.27;1.90;;;;;;;-145.69;100.00;52598.84;5077479;28;20222;-84
2023/02/26 06:28:49;;;;;;;2.60;1.70;;;;;;;-145.69;100.00;52666.19;5077365;28;20580;-84
2023/02/26 06:31:15;;;;;;;5.93;1.80;;;;;;;-145.69;100.00;52646.41;5075882;28;20223;-83
2023/02/26 06:33:45;;;;;;;3.33;1.63;;;;;;;-145.69;100.00;52644.41;5074802;28;20207;-83
2023/02/26 06:36:12;;;;;;;2.67;1.80;;;;;;;-145.69;100.00;52624.59;5077701;28;20202;-83
2023/02/26 06:38:41;;;;;;;3.07;1.63;;;;;;;-145.69;100.00;52632.53;5074729;28;20195;-83
2023/02/26 06:41:08;;;;;;;5.13;1.57;;;;;;;-145.69;100.00;52654.31;5075733;28;20199;-82
2023/02/26 06:43:35;;;;;;;4.17;1.60;;;;;;;-145.69;100.00;52630.53;5074677;28;20233;-82
2023/02/26 06:46:01;;;;;;;3.03;1.60;;;;;;;-145.69;100.00;52674.13;5074951;28;20584;-82
2023/02/26 06:48:28;;;;;;;7.23;1.77;;;;;;;-145.69;100.00;52634.50;5075771;28;20277;-83
2023/02/26 06:50:55;;;;;;;4.27;1.70;;;;;;;-145.69;100.00;52628.56;5077189;28;20206;-84
2023/02/26 06:53:22;;;;;;;7.17;1.80;;;;;;;-145.69;100.00;52622.63;5080009;28;20226;-84
2023/02/26 06:55:51;;;;;;;3.17;1.57;;;;;;;-145.69;100.00;52636.50;5078892;28;20209;-84
2023/02/26 06:58:20;;;;;;;6.37;1.30;;;;;;;-145.69;100.00;52616.69;5077465;28;20207;-83
2023/02/26 07:00:49;;;;;;;4.37;1.57;;;;;;;-145.69;100.00;52614.72;5077235;28;20621;-84
2023/02/26 07:03:17;;;;;;;2.50;1.40;;;;;;;-145.69;100.00;52614.72;5078002;28;20202;-83
2023/02/26 07:05:44;;;;;;;4.63;1.43;;;;;;;-145.69;100.00;52648.38;5075362;28;20260;-83
2023/02/26 07:08:12;;;;;;;4.20;1.60;;;;;;;-145.69;100.00;52620.66;5076998;28;20203;-83
2023/02/26 07:10:40;;;;;;;1.30;1.20;;;;;;;-145.69;100.00;52666.19;5074950;28;20653;-83
2023/02/26 07:13:09;;;;;;;1.83;1.10;;;;;;;-145.69;100.00;52626.59;5075780;28;20233;-83
2023/02/26 07:15:36;;;;;;;2.27;1.27;;;;;;;-145.69;100.00;52638.47;5075567;28;20195;-82
2023/02/26 07:18:04;;;;;;;5.20;1.70;;;;;;;-145.69;100.00;52638.47;5075532;28;20289;-83
2023/02/26 07:20:31;;;;;;;4.87;2.00;;;;;;;-145.69;100.00;52630.53;5077079;28;20194;-83
2023/02/26 07:22:58;;;;;;;3.67;1.80;;;;;;;-145.69;100.00;52602.81;5075214;28;20254;-82
2023/02/26 07:25:26;;;;;;;4.33;1.67;;;;;;;-145.69;100.00;52640.44;5073818;28;20220;-83
2023/02/26 07:27:53;;;;;;;3.33;1.77;;;;;;;-145.69;100.00;52614.72;5074355;28;20234;-84
2023/02/26 07:30:21;;;;;;;3.77;1.83;;;;;;;-145.69;100.00;52606.78;5073857;28;20297;-82
2023/02/26 07:32:48;;;;;;;5.00;2.00;;;;;;;-145.69;100.00;52608.75;5074716;28;20226;-83
2023/02/26 07:35:15;;;;;;;3.53;1.40;;;;;;;-145.69;100.00;52620.66;5075129;28;20209;-82
2023/02/26 07:37:41;;;;;;;3.40;1.90;;;;;;;-145.69;100.00;52608.75;5075140;28;20195;-83
2023/02/26 07:40:09;;;;;;;5.93;1.90;;;;;;;-145.69;100.00;52614.72;5076017;28;20293;-83
2023/02/26 07:42:36;;;;;;;6.63;1.77;;;;;;;-145.69;100.00;52644.41;5075302;28;20209;-82
2023/02/26 07:45:03;;;;;;;3.63;1.50;;;;;;;-145.69;100.00;52612.72;5073397;28;20202;-82
2023/02/26 07:47:31;;;;;;;5.87;1.87;;;;;;;-145.69;100.00;52636.50;5072866;28;20198;-82
2023/02/26 07:49:58;;;;;;;2.17;1.47;;;;;;;-145.69;100.00;52614.72;5075964;28;20214;-82
2023/02/26 07:52:25;;;;;;;4.17;1.93;;;;;;;-145.69;100.00;52636.50;5074129;28;20233;-83
2023/02/26 07:54:52;;;;;;;5.53;2.07;;;;;;;-145.69;100.00;52630.53;5075573;28;20194;-82
2023/02/26 07:57:18;;;;;;;4.37;2.10;;;;;;;-145.69;100.00;52614.72;5074640;28;20203;-82
2023/02/26 07:59:45;;;;;;;4.47;1.83;;;;;;;-145.69;100.00;52654.31;5073107;28;20653;-82
2023/02/26 08:02:12;;;;;;;6.53;1.90;;;;;;;-145.69;100.00;52654.31;5073125;28;20225;-82
2023/02/26 08:04:41;;;;;;;9.97;2.43;;;;;;;-145.69;100.00;52644.41;5072840;28;20205;-81
2023/02/26 08:07:08;;;;;;;4.73;1.80;;;;;;;-145.69;100.00;52592.91;5072876;28;20217;-82
2023/02/26 08:09:34;;;;;;;3.57;1.80;;;;;;;-145.69;100.00;52632.53;5073489;28;20195;-83
2023/02/26 08:12:02;;;;;;;8.53;2.10;;;;;;;-145.69;100.00;52606.78;5072556;28;20226;-82
2023/02/26 08:14:31;;;;;;;3.97;2.00;;;;;;;-145.69;100.00;52638.47;5073884;28;20209;-82
2023/02/26 08:16:57;;;;;;;3.20;1.90;;;;;;;-145.69;100.00;52594.91;5072269;28;20289;-82
2023/02/26 08:19:24;;;;;;;6.53;2.00;;;;;;;-145.69;100.00;52602.81;5072368;28;20191;-81
2023/02/26 08:21:54;;;;;;;4.67;2.23;;;;;;;-145.69;100.00;52602.81;5072578;28;20199;-85
2023/02/26 08:24:20;;;;;;;4.43;2.00;;;;;;;-145.69;100.00;52626.59;5072958;28;20198;-82
2023/02/26 08:26:47;;;;;;;3.20;2.00;;;;;;;-145.69;100.00;52614.72;5073290;28;20222;-85
2023/02/26 08:29:14;;;;;;;3.00;1.87;;;;;;;-145.69;100.00;52620.66;5073089;28;20231;-85
2023/02/26 08:31:40;;;;;;;6.30;1.83;;;;;;;-145.69;100.00;52622.63;5073502;28;20249;-83
2023/02/26 08:34:07;;;;;;;6.23;2.10;;;;;;;-145.69;100.00;52634.50;5074543;28;20215;-82
2023/02/26 08:36:36;;;;;;;2.27;1.90;;;;;;;-145.69;100.00;52662.22;5076307;28;20270;-82
2023/02/26 08:39:04;;;;;;;2.10;1.77;;;;;;;-145.69;100.00;52638.47;5078420;28;20569;-85
2023/02/26 08:41:31;;;;;;;5.87;2.00;;;;;;;-145.69;100.00;52622.63;5081280;28;20218;-84
2023/02/26 08:44:01;;;;;;;6.43;1.93;;;;;;;-145.69;100.00;52596.88;5079849;28;20202;-83
2023/02/26 08:46:27;;;;;;;4.70;1.73;;;;;;;-145.69;100.00;52622.63;5079156;28;20203;-83
2023/02/26 08:48:54;;;;;;;12.37;1.77;;;;;;;-145.69;100.00;52652.34;5079007;28;20194;-83
2023/02/26 08:51:21;;;;;;;4.77;1.70;;;;;;;-145.69;100.00;52622.63;5079507;28;20195;-81
2023/02/26 08:53:50;;;;;;;6.70;1.97;;;;;;;-145.69;100.00;52592.91;5080049;28;20202;-84
2023/02/26 08:56:19;;;;;;;5.70;2.33;;;;;;;-145.69;100.00;52630.53;5077122;28;20487;-84
2023/02/26 08:58:45;;;;;;;3.43;2.10;;;;;;;-145.69;100.00;52620.66;5076208;28;20206;-84
2023/02/26 09:01:12;;;;;;;4.60;2.27;;;;;;;-145.69;100.00;52630.53;5076085;28;20620;-83
2023/02/26 09:03:41;;;;;;;6.03;2.63;;;;;;;-145.69;100.00;52626.59;5076511;28;20203;-84
2023/02/26 09:06:09;;;;;;;6.73;2.10;;;;;;;-145.69;97.64;52618.66;5076653;28;20205;-85
2023/02/26 09:08:37;;;;;;;2.33;1.40;;;;;;;-145.69;95.46;52638.47;5076577;28;20199;-84
2023/02/26 09:11:04;;;;;;;2.17;1.50;;;;;;;-145.69;93.25;52624.59;5076164;28;20199;-83
2023/02/26 09:13:34;;;;;;;1.37;1.20;;;;;;;-145.69;94.09;52632.53;5075723;28;20309;-84
2023/02/26 09:16:01;;;;;;;5.53;1.97;;;;;;;-145.69;91.83;52610.75;5075631;28;20195;-85
2023/02/26 09:18:27;;;;;;;2.30;1.30;;;;;;;-145.69;88.58;52586.97;5076022;28;20203;-84
2023/02/26 09:20:54;;;;;;;2.23;1.17;;;;;;;-145.69;90.11;52638.47;5076078;28;20210;-85
2023/02/26 09:23:21;;;;;;;1.97;1.70;;;;;;;-145.69;82.21;52590.94;5075828;28;20202;-85
2023/02/26 09:25:53;;;;;;;1.40;1.20;;;;;;;-145.69;89.44;52612.72;5075918;28;20203;-85
2023/02/26 09:28:20;;;;;;;2.23;1.47;;;;;;;-145.69;89.86;52586.97;5075801;28;20230;-84
2023/02/26 09:30:51;;;;;;;2.03;1.27;;;;;;;-145.69;93.09;52640.44;5108284;28;20281;-85
2023/02/26 09:33:17;;;;;;;1.23;1.13;;;;;;;-145.69;91.55;52638.47;5075835;28;20313;-85
2023/02/26 09:35:47;;;;;;;2.30;1.40;;;;;;;-145.69;88.85;52598.84;5075704;28;20210;-86
2023/02/26 09:38:14;;;;;;;4.37;1.80;;;;;;;-145.69;87.58;52650.34;5075608;28;20198;-86
2023/02/26 09:40:48;;;;;;;6.87;1.50;;;;;;;-145.69;89.11;52618.66;5074723;28;20198;-85
2023/02/26 09:43:46;;;;;;;3.23;1.33;;;;;;;-145.69;89.00;52610.75;5075217;28;20294;-85
2023/02/26 09:46:32;;;;;;;2.43;1.40;;;;;;;-145.69;87.48;52622.63;5074055;28;20530;-85
2023/02/26 09:49:07;;;;;;;6.00;1.40;;;;;;;-145.69;92.13;52616.69;5075352;28;20198;-84
2023/02/26 09:51:36;;;;;;;4.10;1.60;;;;;;;-145.69;97.96;52606.78;5075328;28;20202;-84
2023/02/26 09:54:14;;;;;;;2.43;1.43;;;;;;;-145.69;99.27;52628.56;5074790;28;20223;-85
2023/02/26 09:56:41;;;;;;;3.43;1.70;;;;;;;-145.69;100.00;52636.50;5075225;28;20198;-85
2023/02/26 09:59:09;;;;;;;4.03;1.50;;;;;;;-145.69;99.91;52567.16;5074888;28;20373;-84
2023/02/26 10:01:44;;;;;;;5.20;1.37;;;;;;;-145.69;97.92;52600.84;5074428;28;20190;-85
2023/02/26 10:04:18;;;;;;;2.33;1.50;;;;;;;-145.69;100.00;52590.94;5075216;28;20293;-85
2023/02/26 10:06:58;;;;;;;2.73;1.67;;;;;;;-145.69;100.00;52630.53;5075138;28;20251;-85
2023/02/26 10:09:49;;;;;;;3.00;1.27;;;;;;;-145.69;100.00;52598.84;5073636;28;20195;-85
2023/02/26 10:12:19;;;;;;;7.63;1.83;;;;;;;-145.69;100.00;52598.84;5074354;28;20561;-85
2023/02/26 10:14:52;;;;;;;3.93;1.60;;;;;;;-145.69;100.00;52586.97;5074845;28;20207;-84
2023/02/26 10:17:26;;;;;;;3.40;1.50;;;;;;;-145.69;98.13;52606.78;5073145;28;20468;-85
2023/02/26 10:19:58;;;;;;;2.60;1.90;;;;;;;-145.69;100.00;52596.88;5074614;28;20203;-85
2023/02/26 10:22:31;;;;;;;1.40;1.30;;;;;;;-145.69;98.86;52610.75;5074643;28;20202;-84
2023/02/26 10:25:03;;;;;;;7.83;1.40;;;;;;;-145.69;97.10;52620.66;5074855;28;20191;-84
2023/02/26 10:27:53;;;;;;;3.27;1.37;;;;;;;-145.69;94.01;52622.63;5073755;28;20553;-85
2023/02/26 10:30:32;;;;;;;3.17;1.50;;;;;;;-145.69;94.54;52628.56;5103009;28;20627;-85
2023/02/26 10:33:07;;;;;;;2.50;1.47;;;;;;;-145.69;91.04;52594.91;5074669;28;20226;-84
2023/02/26 10:35:50;;;;;;;5.60;1.80;;;;;;;-145.69;91.33;52579.06;5074680;28;20229;-85
2023/02/26 10:38:22;;;;;;;2.90;1.90;;;;;;;-145.69;93.24;52610.75;5074331;28;20195;-85
2023/02/26 10:40:53;;;;;;;4.07;1.87;;;;;;;-145.69;94.59;52616.69;5074144;28;20646;-85
2023/02/26 10:43:25;;;;;;;4.37;2.53;;;;;;;-145.69;90.25;52606.78;5074156;28;20696;-85
2023/02/26 10:46:06;;;;;;;7.30;4.30;;;;;;;-145.69;92.61;52579.06;5074175;28;20611;-84
2023/02/26 10:48:52;;;;;;;9.27;4.70;;;;;;;-145.69;97.63;52596.88;5074530;28;20199;-84
2023/02/26 10:51:21;;;;;;;13.33;6.80;;;;;;;-145.69;97.88;52608.75;5074890;28;20285;-85
2023/02/26 10:53:54;;;;;;;4.33;2.27;;;;;;;-145.69;100.00;52575.09;5074555;28;20223;-85
2023/02/26 10:56:25;;;;;;;1.87;1.33;;;;;;;-145.69;98.29;52553.31;5074798;28;20206;-83
2023/02/26 10:58:53;;;;;;;5.33;1.87;;;;;;;-145.69;99.81;52610.75;5073591;28;20202;-84
2023/02/26 11:01:22;;;;;;;3.50;2.30;;;;;;;-145.69;100.00;52622.63;5073706;28;20206;-84
2023/02/26 11:03:55;;;;;;;3.17;1.87;;;;;;;-145.69;99.21;52598.84;5073832;28;20206;-84
2023/02/26 11:06:27;;;;;;;4.13;2.03;;;;;;;-145.69;100.00;52594.91;5072232;28;20462;-84
2023/02/26 11:08:56;;;;;;;2.67;1.47;;;;;;;-145.69;97.39;52586.97;5073804;28;20202;-84
2023/02/26 11:11:40;;;;;;;3.30;1.30;;;;;;;-145.69;98.64;52626.59;5073464;28;20202;-84
2023/02/26 11:14:08;;;;;;;3.63;1.67;;;;;;;-145.69;100.00;52606.78;5070278;28;20707;-84
2023/02/26 11:16:35;;;;;;;3.73;1.93;;;;;;;-145.69;100.00;52612.72;5073428;28;20669;-84
2023/02/26 11:19:06;;;;;;;4.53;1.60;;;;;;;-145.69;96.21;52594.91;5072696;28;20190;-84
2023/02/26 11:21:37;;;;;;;4.27;2.63;;;;;;;-145.69;99.62;52602.81;5084203;28;20648;-84
2023/02/26 11:24:08;;;;;;;2.87;1.63;;;;;;;-145.69;99.66;52590.94;5064495;28;20206;-84